createdAt,value
2024-03-02T00:03:04.666Z,100097.06
2024-03-02T00:06:31.551Z,100095.49
2024-03-02T00:09:58.731Z,100094.23
2024-03-02T00:13:25.846Z,100094.36
2024-03-02T00:16:54.713Z,100094.48
2024-03-02T00:20:24.691Z,100094.97
2024-03-02T00:23:53.845Z,100094.36
2024-03-02T00:27:22.239Z,100093.04
2024-03-02T00:31:00.477Z,100090.05
2024-03-02T00:34:29.033Z,100086.62
2024-03-02T00:37:55.264Z,100087.48
2024-03-02T00:41:26.657Z,100083.34
2024-03-02T00:44:53.283Z,100084.47
2024-03-02T00:48:20.856Z,100083.86
2024-03-02T00:51:51.353Z,100080.17
2024-03-02T00:55:18.025Z,100084.50
2024-03-02T00:58:44.157Z,100089.45
2024-03-02T01:02:13.151Z,100090.95
2024-03-02T01:05:39.590Z,100087.60
2024-03-02T01:09:06.344Z,100084.79
2024-03-02T01:12:33.397Z,100074.16
2024-03-02T01:15:59.982Z,100065.31
2024-03-02T01:19:28.283Z,100056.89
2024-03-02T01:22:54.881Z,100059.05
2024-03-02T01:26:22.027Z,100058.91
2024-03-02T01:29:48.159Z,100059.83
2024-03-02T01:33:14.071Z,100057.34
2024-03-02T01:36:40.784Z,100052.92
2024-03-02T01:40:10.521Z,100045.64
2024-03-02T01:43:40.376Z,100034.27
2024-03-02T01:47:08.486Z,100027.49
2024-03-02T01:50:35.522Z,100024.30
2024-03-02T01:54:03.985Z,100029.43
2024-03-02T01:57:30.750Z,100027.77
2024-03-02T02:00:57.225Z,100034.73
2024-03-02T02:04:29.160Z,100035.95
2024-03-02T02:07:54.974Z,100035.07
2024-03-02T02:11:21.344Z,100028.40
2024-03-02T02:14:52.569Z,100035.98
2024-03-02T02:18:18.506Z,100031.98
2024-03-02T02:21:47.364Z,100028.98
2024-03-02T02:25:13.918Z,100032.00
2024-03-02T02:28:40.221Z,100025.83
2024-03-02T02:32:06.842Z,100035.45
2024-03-02T02:35:32.619Z,100034.13
2024-03-02T02:38:59.820Z,100032.44
2024-03-02T02:42:25.932Z,100033.80
2024-03-02T02:45:52.550Z,100040.26
2024-03-02T02:49:19.107Z,100036.35
2024-03-02T02:52:46.194Z,100031.70
2024-03-02T02:56:12.218Z,100032.81
2024-03-02T02:59:39.490Z,100034.12
2024-03-02T03:03:05.982Z,100031.44
2024-03-02T03:06:31.871Z,100034.40
2024-03-02T03:09:58.413Z,100033.70
2024-03-02T03:13:25.271Z,100038.27
2024-03-02T03:16:52.161Z,100032.80
2024-03-02T03:20:18.459Z,100031.98
2024-03-02T03:23:44.327Z,100033.08
2024-03-02T03:27:10.458Z,100043.98
2024-03-02T03:30:36.522Z,100035.02
2024-03-02T03:34:02.340Z,100028.21
2024-03-02T03:37:34.700Z,100032.15
2024-03-02T03:41:01.962Z,100030.81
2024-03-02T03:44:29.210Z,100027.05
2024-03-02T03:47:55.385Z,100024.33
2024-03-02T03:51:21.202Z,100015.04
2024-03-02T03:54:47.618Z,100014.90
2024-03-02T03:58:21.339Z,100016.98
2024-03-02T04:01:49.468Z,100010.83
2024-03-02T04:05:16.147Z,100009.73
2024-03-02T04:08:43.726Z,100009.61
2024-03-02T04:12:10.565Z,100004.70
2024-03-02T04:15:36.823Z,100007.10
2024-03-02T04:19:03.330Z,100012.15
2024-03-02T04:22:29.727Z,100006.71
2024-03-02T04:25:55.717Z,100008.92
2024-03-02T04:29:21.944Z,100012.69
2024-03-02T04:32:49.162Z,100009.03
2024-03-02T04:36:15.338Z,100009.11
2024-03-02T04:39:41.599Z,100008.80
2024-03-02T04:43:09.860Z,100005.73
2024-03-02T04:46:37.115Z,99993.88
2024-03-02T04:50:03.676Z,99997.28
2024-03-02T04:53:29.800Z,100009.30
2024-03-02T04:56:56.130Z,100014.77
2024-03-02T05:00:22.286Z,100009.80
2024-03-02T05:03:48.796Z,100008.85
2024-03-02T05:07:15.320Z,100017.39
2024-03-02T05:10:41.103Z,100025.84
2024-03-02T05:14:07.481Z,100034.90
2024-03-02T05:17:34.077Z,100037.93
2024-03-02T05:21:00.903Z,100044.30
2024-03-02T05:24:28.806Z,100052.55
2024-03-02T05:27:55.382Z,100052.17
2024-03-02T05:31:24.525Z,100049.91
2024-03-02T05:34:52.189Z,100047.02
2024-03-02T05:38:18.634Z,100050.28
2024-03-02T05:41:44.770Z,100048.67
2024-03-02T05:45:12.309Z,100047.17
2024-03-02T05:48:38.400Z,100055.64
2024-03-02T05:52:04.650Z,100052.48
2024-03-02T05:55:31.094Z,100062.21
2024-03-02T05:59:10.050Z,100061.40
2024-03-02T06:02:40.005Z,100075.53
2024-03-02T06:06:07.833Z,100078.41
2024-03-02T06:09:33.797Z,100076.46
2024-03-02T06:13:00.368Z,100076.60
2024-03-02T06:16:26.598Z,100078.98
2024-03-02T06:19:52.938Z,100084.91
2024-03-02T06:23:20.269Z,100085.67
2024-03-02T06:26:46.304Z,100092.11
2024-03-02T06:30:14.762Z,100086.67
2024-03-02T06:33:41.652Z,100088.66
2024-03-02T06:37:08.554Z,100086.85
2024-03-02T06:40:35.557Z,100087.70
2024-03-02T06:44:01.826Z,100088.02
2024-03-02T06:47:28.021Z,100093.70
2024-03-02T06:50:54.564Z,100091.48
2024-03-02T06:54:20.404Z,100089.23
2024-03-02T06:57:46.604Z,100084.27
2024-03-02T07:01:12.857Z,100078.58
2024-03-02T07:04:39.405Z,100069.27
2024-03-02T07:08:06.642Z,100068.29
2024-03-02T07:11:33.712Z,100077.37
2024-03-02T07:15:20.052Z,100088.44
2024-03-02T07:18:53.560Z,100093.63
2024-03-02T07:22:20.187Z,100091.21
2024-03-02T07:29:15.418Z,100090.12
2024-03-02T07:32:43.370Z,100090.81
2024-03-02T07:36:12.124Z,100094.63
2024-03-02T07:39:38.463Z,100113.17
2024-03-02T07:43:06.999Z,100119.09
2024-03-02T07:46:36.009Z,100110.92
2024-03-02T07:50:02.857Z,100104.88
2024-03-02T07:53:28.892Z,100105.16
2024-03-02T07:56:55.121Z,100101.92
2024-03-02T08:00:21.691Z,100102.98
2024-03-02T08:03:49.448Z,100094.49
2024-03-02T08:07:16.279Z,100100.54
2024-03-02T08:10:42.834Z,100101.67
2024-03-02T08:14:09.683Z,100110.20
2024-03-02T08:17:38.224Z,100106.55
2024-03-02T08:21:05.935Z,100113.85
2024-03-02T08:24:34.773Z,100115.67
2024-03-02T08:28:04.266Z,100121.23
2024-03-02T08:31:30.566Z,100128.84
2024-03-02T08:34:57.026Z,100122.10
2024-03-02T08:38:23.353Z,100119.96
2024-03-02T08:41:50.266Z,100115.80
2024-03-02T08:45:18.789Z,100116.98
2024-03-02T08:48:45.518Z,100124.30
2024-03-02T08:52:11.688Z,100117.34
2024-03-02T08:55:37.701Z,100123.58
2024-03-02T08:59:03.960Z,100129.55
2024-03-02T09:02:30.495Z,100133.60
2024-03-02T09:05:56.600Z,100144.34
2024-03-02T09:09:23.285Z,100145.16
2024-03-02T09:12:49.271Z,100143.20
2024-03-02T09:16:16.180Z,100147.50
2024-03-02T09:19:42.390Z,100144.58
2024-03-02T09:23:08.911Z,100144.93
2024-03-02T09:26:35.212Z,100139.20
2024-03-02T09:30:01.589Z,100141.95
2024-03-02T09:33:28.947Z,100145.05
2024-03-02T09:36:56.178Z,100140.77
2024-03-02T09:40:26.937Z,100131.66
2024-03-02T09:43:55.444Z,100135.80
2024-03-02T09:47:21.598Z,100140.09
2024-03-02T09:50:48.386Z,100140.20
2024-03-02T09:54:21.935Z,100142.41
2024-03-02T09:57:50.024Z,100143.95
2024-03-02T10:01:16.527Z,100145.06
2024-03-02T10:04:42.696Z,100149.85
2024-03-02T10:08:09.493Z,100145.75
2024-03-02T10:11:38.813Z,100156.09
2024-03-02T10:15:11.298Z,100152.98
2024-03-02T10:18:37.932Z,100146.40
2024-03-02T10:22:05.308Z,100145.01
2024-03-02T10:29:03.905Z,100132.16
2024-03-02T10:32:31.638Z,100135.23
2024-03-02T10:35:59.090Z,100138.55
2024-03-02T10:39:26.803Z,100138.54
2024-03-02T10:42:54.094Z,100133.34
2024-03-02T10:46:21.295Z,100135.05
2024-03-02T10:49:49.385Z,100130.59
2024-03-02T10:53:15.619Z,100131.44
2024-03-02T10:56:43.805Z,100134.14
2024-03-02T11:00:16.155Z,100118.58
2024-03-02T11:03:44.089Z,100115.24
2024-03-02T11:07:12.182Z,100119.66
2024-03-02T11:10:46.056Z,100114.71
2024-03-02T11:14:16.307Z,100106.58
2024-03-02T11:17:43.705Z,100112.93
2024-03-02T11:21:10.948Z,100108.10
2024-03-02T11:24:39.004Z,100109.45
2024-03-02T11:28:07.192Z,100114.29
2024-03-02T11:32:01.861Z,100109.65
2024-03-02T11:35:30.093Z,100108.53
2024-03-02T11:38:56.711Z,100109.98
2024-03-02T11:42:23.560Z,100109.94
2024-03-02T11:45:49.568Z,100110.47
2024-03-02T11:49:17.962Z,100110.89
2024-03-02T11:52:44.693Z,100107.26
2024-03-02T11:56:13.064Z,100103.38
2024-03-02T11:59:39.397Z,100097.91
2024-03-02T12:03:08.627Z,100090.59
2024-03-02T12:06:35.597Z,100091.52
2024-03-02T12:10:05.178Z,100096.96
2024-03-02T12:13:32.725Z,100100.48
2024-03-02T12:17:00.055Z,100099.06
2024-03-02T12:20:26.932Z,100092.63
2024-03-02T12:23:53.080Z,100094.46
2024-03-02T12:27:22.585Z,100089.00
2024-03-02T12:30:51.348Z,100089.13
2024-03-02T12:34:19.897Z,100084.46
2024-03-02T12:37:50.181Z,100084.61
2024-03-02T12:41:19.688Z,100083.05
2024-03-02T12:44:47.944Z,100079.55
2024-03-02T12:48:15.829Z,100077.96
2024-03-02T12:51:43.212Z,100079.19
2024-03-02T12:55:12.721Z,100082.00
2024-03-02T12:58:43.983Z,100080.61
2024-03-02T13:02:11.905Z,100076.14
2024-03-02T13:05:38.001Z,100073.33
2024-03-02T13:09:05.575Z,100080.64
2024-03-02T13:12:32.815Z,100078.56
2024-03-02T13:16:00.474Z,100081.27
2024-03-02T13:19:26.733Z,100080.59
2024-03-02T13:22:53.377Z,100082.16
2024-03-02T13:26:22.380Z,100078.77
2024-03-02T13:29:49.743Z,100077.38
2024-03-02T13:33:16.508Z,100076.45
2024-03-02T13:36:44.527Z,100079.23
2024-03-02T13:40:15.151Z,100080.39
2024-03-02T13:43:41.645Z,100081.13
2024-03-02T13:47:09.304Z,100082.77
2024-03-02T13:50:36.369Z,100085.36
2024-03-02T13:54:04.471Z,100085.35
2024-03-02T13:57:32.205Z,100086.95
2024-03-02T14:00:58.965Z,100086.32
2024-03-02T14:04:25.551Z,100085.13
2024-03-02T14:07:51.665Z,100088.64
2024-03-02T14:11:18.982Z,100099.52
2024-03-02T14:14:47.591Z,100097.88
2024-03-02T14:18:14.849Z,100101.38
2024-03-02T14:21:41.820Z,100100.48
2024-03-02T14:25:09.453Z,100095.09
2024-03-02T14:32:10.220Z,100104.02
2024-03-02T14:35:36.369Z,100100.79
2024-03-02T14:39:03.331Z,100099.41
2024-03-02T14:42:32.936Z,100098.30
2024-03-02T14:46:00.633Z,100103.23
2024-03-02T14:49:29.707Z,100105.55
2024-03-02T14:52:58.571Z,100101.05
2024-03-02T14:56:25.150Z,100101.30
2024-03-02T14:59:52.004Z,100099.25
2024-03-02T15:03:18.146Z,100097.09
2024-03-02T15:06:46.826Z,100095.69
2024-03-02T15:10:13.074Z,100096.58
2024-03-02T15:13:39.095Z,100096.34
2024-03-02T15:17:05.518Z,100102.55
2024-03-02T15:20:31.743Z,100100.30
2024-03-02T15:23:58.932Z,100103.55
2024-03-02T15:27:26.555Z,100103.00
2024-03-02T15:30:55.815Z,100098.52
2024-03-02T15:34:23.562Z,100101.52
2024-03-02T15:37:49.715Z,100101.52
2024-03-02T15:41:16.248Z,100105.38
2024-03-02T15:44:45.261Z,100103.03
2024-03-02T15:48:11.787Z,100103.67
2024-03-02T15:51:41.869Z,100106.60
2024-03-02T15:55:09.721Z,100103.75
2024-03-02T15:58:37.484Z,100103.25
2024-03-02T16:02:05.069Z,100104.47
2024-03-02T16:05:32.284Z,100106.45
2024-03-02T16:09:01.057Z,100107.11
2024-03-02T16:12:27.406Z,100108.84
2024-03-02T16:15:53.825Z,100111.66
2024-03-02T16:19:29.229Z,100112.89
2024-03-02T16:23:03.150Z,100112.31
2024-03-02T16:26:32.548Z,100116.60
2024-03-02T16:30:00.205Z,100117.87
2024-03-02T16:33:27.177Z,100124.08
2024-03-02T16:36:55.293Z,100123.55
2024-03-02T16:40:22.082Z,100129.29
2024-03-02T16:43:48.910Z,100129.17
2024-03-02T16:47:16.666Z,100133.49
2024-03-02T16:50:42.541Z,100137.39
2024-03-02T16:54:08.540Z,100137.42
2024-03-02T16:57:37.372Z,100136.19
2024-03-02T17:01:04.622Z,100136.11
2024-03-02T17:04:31.361Z,100133.47
2024-03-02T17:07:59.498Z,100138.77
2024-03-02T17:11:26.384Z,100137.86
2024-03-02T17:14:52.524Z,100139.33
2024-03-02T17:18:19.699Z,100144.63
2024-03-02T17:21:45.721Z,100143.23
2024-03-02T17:25:13.670Z,100145.70
2024-03-02T17:28:39.798Z,100145.66
2024-03-02T17:32:06.479Z,100144.91
2024-03-02T17:35:33.507Z,100144.23
2024-03-02T17:39:00.169Z,100142.76
2024-03-02T17:42:30.559Z,100148.02
2024-03-02T17:45:59.629Z,100148.05
2024-03-02T17:49:25.741Z,100149.87
2024-03-02T17:52:52.099Z,100153.52
2024-03-02T17:56:18.707Z,100154.35
2024-03-02T17:59:45.462Z,100156.39
2024-03-02T18:03:12.140Z,100158.35
2024-03-02T18:06:38.311Z,100156.86
2024-03-02T18:10:05.101Z,100159.23
2024-03-02T18:13:34.359Z,100161.61
2024-03-02T18:17:00.841Z,100159.42
2024-03-02T18:20:27.581Z,100155.61
2024-03-02T18:23:53.923Z,100154.71
2024-03-02T18:27:22.996Z,100156.23
2024-03-02T18:30:48.994Z,100157.12
2024-03-02T18:34:15.487Z,100158.56
2024-03-02T18:37:44.031Z,100159.91
2024-03-02T18:41:10.128Z,100157.92
2024-03-02T18:44:36.349Z,100156.25
2024-03-02T18:48:03.788Z,100150.88
2024-03-02T18:51:30.860Z,100151.50
2024-03-02T18:54:59.680Z,100150.77
2024-03-02T18:58:26.943Z,100149.40
2024-03-02T19:01:53.487Z,100151.62
2024-03-02T19:05:19.927Z,100154.05
2024-03-02T19:08:46.174Z,100155.36
2024-03-02T19:12:12.708Z,100156.52
2024-03-02T19:15:38.766Z,100158.45
2024-03-02T19:19:05.303Z,100159.47
2024-03-02T19:22:34.442Z,100156.34
2024-03-02T19:26:00.932Z,100159.19
2024-03-02T19:29:30.123Z,100156.87
2024-03-02T19:32:56.052Z,100156.56
2024-03-02T19:36:22.522Z,100155.46
2024-03-02T19:39:48.689Z,100156.48
2024-03-02T19:43:19.024Z,100158.45
2024-03-02T19:46:48.596Z,100158.96
2024-03-02T19:50:15.719Z,100161.64
2024-03-02T19:53:42.212Z,100162.42
2024-03-02T19:57:08.473Z,100158.61
2024-03-02T20:00:40.033Z,100160.11
2024-03-02T20:04:06.737Z,100157.48
2024-03-02T20:07:33.753Z,100162.95
2024-03-02T20:10:59.757Z,100163.63
2024-03-02T20:14:27.734Z,100158.20
2024-03-02T20:17:56.090Z,100153.70
2024-03-02T20:21:22.505Z,100153.16
2024-03-02T20:24:49.390Z,100148.25
2024-03-02T20:28:18.614Z,100150.27
2024-03-02T20:31:51.542Z,100148.84
2024-03-02T20:35:18.398Z,100148.31
2024-03-02T20:38:44.405Z,100150.67
2024-03-02T20:42:10.910Z,100152.97
2024-03-02T20:45:39.892Z,100154.96
2024-03-02T20:49:06.880Z,100155.46
2024-03-02T20:52:33.447Z,100159.57
2024-03-02T20:55:59.604Z,100161.42
2024-03-02T20:59:28.435Z,100161.45
2024-03-02T21:02:54.423Z,100158.66
2024-03-02T21:06:21.021Z,100161.66
2024-03-02T21:09:47.284Z,100161.96
2024-03-02T21:13:13.915Z,100158.41
2024-03-02T21:16:42.504Z,100154.45
2024-03-02T21:20:10.998Z,100153.90
2024-03-02T21:23:37.351Z,100157.41
2024-03-02T21:27:04.314Z,100158.80
2024-03-02T21:30:32.346Z,100161.70
2024-03-02T21:33:58.760Z,100163.04
2024-03-02T21:37:25.841Z,100162.20
2024-03-02T21:40:52.620Z,100160.10
2024-03-02T21:44:19.600Z,100158.94
2024-03-02T21:47:46.677Z,100156.36
2024-03-02T21:51:18.651Z,100161.32
2024-03-02T21:54:45.319Z,100160.45
2024-03-02T21:58:13.751Z,100163.46
2024-03-02T22:01:40.598Z,100166.27
2024-03-02T22:05:08.563Z,100163.38
2024-03-02T22:08:34.703Z,100166.00
2024-03-02T22:12:02.548Z,100166.23
2024-03-02T22:15:29.111Z,100165.02
2024-03-02T22:18:56.646Z,100167.84
2024-03-02T22:22:22.843Z,100164.70
2024-03-02T22:25:49.712Z,100162.68
2024-03-02T22:29:15.873Z,100161.49
2024-03-02T22:32:41.949Z,100155.06
2024-03-02T22:36:10.281Z,100150.08
2024-03-02T22:39:36.169Z,100150.98
2024-03-02T22:43:03.221Z,100151.39
2024-03-02T22:46:29.726Z,100154.27
2024-03-02T22:49:57.281Z,100151.13
2024-03-02T22:53:23.634Z,100155.45
2024-03-02T22:56:50.179Z,100152.96
2024-03-02T23:00:31.303Z,100152.86
2024-03-02T23:03:57.870Z,100151.97
2024-03-02T23:07:24.272Z,100150.38
2024-03-02T23:10:50.531Z,100154.14
2024-03-02T23:14:16.613Z,100158.90
2024-03-02T23:17:43.258Z,100159.26
2024-03-02T23:21:10.016Z,100159.63
2024-03-02T23:24:35.814Z,100160.86
2024-03-02T23:28:03.356Z,100154.79
2024-03-02T23:31:30.347Z,100159.51
2024-03-02T23:34:56.894Z,100159.82
2024-03-02T23:38:22.932Z,100154.89
2024-03-02T23:41:51.375Z,100152.98
2024-03-02T23:45:17.857Z,100154.88
2024-03-02T23:48:48.554Z,100149.00
2024-03-02T23:52:16.700Z,100149.71
2024-03-02T23:55:51.829Z,100149.39
2024-03-02T23:59:19.800Z,100149.33
